sensor_id;sensor_type;location;lat;lon;timestamp;P1;durP1;ratioP1;P2;durP2;ratioP2
12072;SDS011;6098;49.004;8.372;2023-06-10T00:06:20;8.34;;;7.25;;
12072;SDS011;6098;49.004;8.372;2023-06-10T00:21:12;8.00;;;7.28;;
12072;SDS011;6098;49.004;8.372;2023-06-10T00:36:03;8.51;;;7.62;;
12072;SDS011;6098;49.004;8.372;2023-06-10T00:50:55;8.48;;;7.62;;
12072;SDS011;6098;49.004;8.372;2023-06-10T01:05:49;8.29;;;7.40;;
12072;SDS011;6098;49.004;8.372;2023-06-10T01:20:43;8.25;;;7.36;;
12072;SDS011;6098;49.004;8.372;2023-06-10T01:35:33;8.71;;;7.93;;
12072;SDS011;6098;49.004;8.372;2023-06-10T01:50:25;9.04;;;7.60;;
12072;SDS011;6098;49.004;8.372;2023-06-10T02:05:16;9.16;;;7.28;;
12072;SDS011;6098;49.004;8.372;2023-06-10T02:20:10;8.23;;;7.43;;
12072;SDS011;6098;49.004;8.372;2023-06-10T02:35:04;9.50;;;8.20;;
12072;SDS011;6098;49.004;8.372;2023-06-10T02:49:56;9.64;;;8.82;;
12072;SDS011;6098;49.004;8.372;2023-06-10T03:04:47;13.36;;;8.70;;
12072;SDS011;6098;49.004;8.372;2023-06-10T03:19:43;9.47;;;8.57;;
12072;SDS011;6098;49.004;8.372;2023-06-10T03:34:35;8.88;;;8.07;;
12072;SDS011;6098;49.004;8.372;2023-06-10T03:49:26;9.00;;;8.10;;
12072;SDS011;6098;49.004;8.372;2023-06-10T04:04:19;9.17;;;7.91;;
12072;SDS011;6098;49.004;8.372;2023-06-10T04:19:11;8.73;;;7.87;;
12072;SDS011;6098;49.004;8.372;2023-06-10T04:34:03;8.59;;;7.19;;
12072;SDS011;6098;49.004;8.372;2023-06-10T04:48:55;8.88;;;7.98;;
12072;SDS011;6098;49.004;8.372;2023-06-10T05:03:46;8.36;;;7.59;;
12072;SDS011;6098;49.004;8.372;2023-06-10T05:18:51;7.24;;;6.64;;
12072;SDS011;6098;49.004;8.372;2023-06-10T05:33:44;9.32;;;7.49;;
12072;SDS011;6098;49.004;8.372;2023-06-10T05:48:37;7.47;;;6.56;;
12072;SDS011;6098;49.004;8.372;2023-06-10T06:03:30;7.46;;;6.20;;
12072;SDS011;6098;49.004;8.372;2023-06-10T06:18:23;6.28;;;5.47;;
12072;SDS011;6098;49.004;8.372;2023-06-10T06:33:16;6.57;;;5.54;;
12072;SDS011;6098;49.004;8.372;2023-06-10T06:48:09;5.51;;;4.99;;
12072;SDS011;6098;49.004;8.372;2023-06-10T07:03:01;5.91;;;5.31;;
12072;SDS011;6098;49.004;8.372;2023-06-10T07:17:55;6.10;;;5.53;;
12072;SDS011;6098;49.004;8.372;2023-06-10T07:32:47;6.11;;;5.61;;
12072;SDS011;6098;49.004;8.372;2023-06-10T07:47:40;6.28;;;5.68;;
12072;SDS011;6098;49.004;8.372;2023-06-10T08:02:34;6.09;;;5.59;;
12072;SDS011;6098;49.004;8.372;2023-06-10T08:17:27;6.13;;;5.61;;
12072;SDS011;6098;49.004;8.372;2023-06-10T08:32:20;6.09;;;5.34;;
12072;SDS011;6098;49.004;8.372;2023-06-10T08:47:14;5.03;;;4.63;;
12072;SDS011;6098;49.004;8.372;2023-06-10T09:02:07;5.36;;;4.86;;
12072;SDS011;6098;49.004;8.372;2023-06-10T09:17:01;6.06;;;5.46;;
12072;SDS011;6098;49.004;8.372;2023-06-10T09:31:53;7.63;;;6.21;;
12072;SDS011;6098;49.004;8.372;2023-06-10T09:46:48;6.42;;;5.51;;
12072;SDS011;6098;49.004;8.372;2023-06-10T10:01:41;6.96;;;6.23;;
12072;SDS011;6098;49.004;8.372;2023-06-10T10:16:36;7.21;;;6.20;;
12072;SDS011;6098;49.004;8.372;2023-06-10T10:31:26;6.61;;;5.90;;
12072;SDS011;6098;49.004;8.372;2023-06-10T10:46:20;6.66;;;6.12;;
12072;SDS011;6098;49.004;8.372;2023-06-10T11:01:14;6.77;;;5.91;;
12072;SDS011;6098;49.004;8.372;2023-06-10T11:16:07;5.88;;;5.24;;
12072;SDS011;6098;49.004;8.372;2023-06-10T11:31:00;7.32;;;5.80;;
12072;SDS011;6098;49.004;8.372;2023-06-10T11:45:54;5.76;;;5.26;;
12072;SDS011;6098;49.004;8.372;2023-06-10T12:00:51;6.27;;;5.41;;
12072;SDS011;6098;49.004;8.372;2023-06-10T12:15:46;6.62;;;5.81;;
12072;SDS011;6098;49.004;8.372;2023-06-10T12:30:40;5.28;;;4.82;;
12072;SDS011;6098;49.004;8.372;2023-06-10T13:00:27;7.81;;;5.03;;
12072;SDS011;6098;49.004;8.372;2023-06-10T13:15:21;5.02;;;4.62;;
12072;SDS011;6098;49.004;8.372;2023-06-10T13:30:17;5.61;;;5.07;;
12072;SDS011;6098;49.004;8.372;2023-06-10T13:45:12;5.22;;;4.72;;
12072;SDS011;6098;49.004;8.372;2023-06-10T14:15:21;5.11;;;4.71;;
12072;SDS011;6098;49.004;8.372;2023-06-10T14:30:15;6.04;;;5.08;;
12072;SDS011;6098;49.004;8.372;2023-06-10T14:45:08;5.91;;;4.83;;
12072;SDS011;6098;49.004;8.372;2023-06-10T15:00:03;4.86;;;4.47;;
12072;SDS011;6098;49.004;8.372;2023-06-10T15:14:58;4.70;;;4.07;;
12072;SDS011;6098;49.004;8.372;2023-06-10T15:29:52;4.28;;;3.93;;
12072;SDS011;6098;49.004;8.372;2023-06-10T15:44:47;4.87;;;4.09;;
12072;SDS011;6098;49.004;8.372;2023-06-10T15:59:41;4.07;;;3.77;;
12072;SDS011;6098;49.004;8.372;2023-06-10T16:14:34;4.30;;;3.94;;
12072;SDS011;6098;49.004;8.372;2023-06-10T16:29:27;4.18;;;3.88;;
12072;SDS011;6098;49.004;8.372;2023-06-10T16:44:14;4.62;;;4.22;;
12072;SDS011;6098;49.004;8.372;2023-06-10T16:59:06;7.80;;;4.53;;
12072;SDS011;6098;49.004;8.372;2023-06-10T17:13:59;5.04;;;4.54;;
12072;SDS011;6098;49.004;8.372;2023-06-10T17:28:53;6.67;;;5.13;;
12072;SDS011;6098;49.004;8.372;2023-06-10T17:43:51;4.86;;;4.41;;
12072;SDS011;6098;49.004;8.372;2023-06-10T17:58:41;5.37;;;4.30;;
12072;SDS011;6098;49.004;8.372;2023-06-10T18:13:31;4.86;;;4.46;;
12072;SDS011;6098;49.004;8.372;2023-06-10T18:28:23;5.37;;;4.87;;
12072;SDS011;6098;49.004;8.372;2023-06-10T18:43:15;4.94;;;4.54;;
12072;SDS011;6098;49.004;8.372;2023-06-10T18:58:07;4.76;;;4.36;;
12072;SDS011;6098;49.004;8.372;2023-06-10T19:12:59;4.89;;;4.46;;
12072;SDS011;6098;49.004;8.372;2023-06-10T19:27:50;4.83;;;4.41;;
12072;SDS011;6098;49.004;8.372;2023-06-10T19:42:43;4.24;;;3.84;;
12072;SDS011;6098;49.004;8.372;2023-06-10T19:57:35;4.78;;;4.36;;
12072;SDS011;6098;49.004;8.372;2023-06-10T20:12:27;5.24;;;4.74;;
12072;SDS011;6098;49.004;8.372;2023-06-10T20:27:21;5.70;;;4.53;;
12072;SDS011;6098;49.004;8.372;2023-06-10T20:42:12;6.17;;;4.91;;
12072;SDS011;6098;49.004;8.372;2023-06-10T20:57:04;5.16;;;4.70;;
12072;SDS011;6098;49.004;8.372;2023-06-10T21:11:56;5.93;;;5.07;;
12072;SDS011;6098;49.004;8.372;2023-06-10T21:26:49;5.61;;;5.11;;
12072;SDS011;6098;49.004;8.372;2023-06-10T21:41:41;6.04;;;4.86;;
12072;SDS011;6098;49.004;8.372;2023-06-10T21:56:33;5.30;;;4.83;;
12072;SDS011;6098;49.004;8.372;2023-06-10T22:11:25;4.97;;;4.48;;
12072;SDS011;6098;49.004;8.372;2023-06-10T22:26:16;6.69;;;5.07;;
12072;SDS011;6098;49.004;8.372;2023-06-10T22:41:09;7.30;;;4.44;;
12072;SDS011;6098;49.004;8.372;2023-06-10T22:56:02;9.49;;;4.37;;
12072;SDS011;6098;49.004;8.372;2023-06-10T23:10:53;5.07;;;4.22;;
12072;SDS011;6098;49.004;8.372;2023-06-10T23:25:45;4.74;;;4.19;;
12072;SDS011;6098;49.004;8.372;2023-06-10T23:40:37;5.26;;;4.72;;
12072;SDS011;6098;49.004;8.372;2023-06-10T23:55:29;5.11;;;4.63;;
